Charco, Texas
Current Conditions -  °F | °C
As of 4:55 PM on Monday 24 Nov 2014 (Local Time) from KBEA Reporting Station
Clear Clear  
Wind Chill: 64°   Ceiling: Unl
Heat Index: 64°   Visibility: 10mi
Dew Point: 33°   Wind: 8mph
Humidity: 30%   Direction: 10°N
Pressure: 30.03"   Gusts: NA
Location:  28.6563°N, 97.4287°W
Report Text: KBEA 242255Z AUTO 01007KT 10SM CLR 18/00 A3003 RMK AO2 T01800003
Loading
Personal Weather Stations






























Interactive Weather Map New forecast layout! Learn more

10-Day Weather Forecast

Advertisements
Track Severe Weather on mobile